sensor_id;sensor_type;location;lat;lon;timestamp;temperature;humidity
18998;DHT22;9632;51.018;4.284;2022-11-27T00:02:03;9.50;99.90
18998;DHT22;9632;51.018;4.284;2022-11-27T00:04:29;9.50;99.90
18998;DHT22;9632;51.018;4.284;2022-11-27T00:06:55;9.50;99.90
18998;DHT22;9632;51.018;4.284;2022-11-27T00:09:20;9.50;99.90
18998;DHT22;9632;51.018;4.284;2022-11-27T00:11:46;9.50;99.90
18998;DHT22;9632;51.018;4.284;2022-11-27T00:14:15;9.50;99.90
18998;DHT22;9632;51.018;4.284;2022-11-27T00:16:42;9.50;99.90
18998;DHT22;9632;51.018;4.284;2022-11-27T00:19:09;9.50;99.90
18998;DHT22;9632;51.018;4.284;2022-11-27T00:21:36;9.50;99.90
18998;DHT22;9632;51.018;4.284;2022-11-27T00:24:04;9.50;99.90
18998;DHT22;9632;51.018;4.284;2022-11-27T00:26:30;9.60;99.90
18998;DHT22;9632;51.018;4.284;2022-11-27T00:28:56;9.60;99.90
18998;DHT22;9632;51.018;4.284;2022-11-27T00:31:28;9.60;99.90
18998;DHT22;9632;51.018;4.284;2022-11-27T00:33:58;9.60;99.90
18998;DHT22;9632;51.018;4.284;2022-11-27T00:36:25;9.60;99.90
18998;DHT22;9632;51.018;4.284;2022-11-27T00:38:51;9.60;99.90
18998;DHT22;9632;51.018;4.284;2022-11-27T00:41:21;9.60;99.90
18998;DHT22;9632;51.018;4.284;2022-11-27T00:43:47;9.60;99.90
18998;DHT22;9632;51.018;4.284;2022-11-27T00:46:18;9.70;99.90
18998;DHT22;9632;51.018;4.284;2022-11-27T00:48:44;9.60;99.90
18998;DHT22;9632;51.018;4.284;2022-11-27T00:51:12;9.60;99.90
18998;DHT22;9632;51.018;4.284;2022-11-27T00:53:38;9.70;99.90
18998;DHT22;9632;51.018;4.284;2022-11-27T00:56:04;9.70;99.90
18998;DHT22;9632;51.018;4.284;2022-11-27T00:58:29;9.70;99.90
18998;DHT22;9632;51.018;4.284;2022-11-27T01:01:04;9.70;99.90
18998;DHT22;9632;51.018;4.284;2022-11-27T01:03:31;9.70;99.90
18998;DHT22;9632;51.018;4.284;2022-11-27T01:06:05;9.70;99.90
18998;DHT22;9632;51.018;4.284;2022-11-27T01:08:32;9.70;99.90
18998;DHT22;9632;51.018;4.284;2022-11-27T01:10:58;9.70;99.90
18998;DHT22;9632;51.018;4.284;2022-11-27T01:13:30;9.70;99.90
18998;DHT22;9632;51.018;4.284;2022-11-27T01:16:01;9.70;99.90
18998;DHT22;9632;51.018;4.284;2022-11-27T01:18:27;9.70;99.90
18998;DHT22;9632;51.018;4.284;2022-11-27T01:20:53;9.70;99.90
18998;DHT22;9632;51.018;4.284;2022-11-27T01:23:19;9.70;99.90
18998;DHT22;9632;51.018;4.284;2022-11-27T01:25:45;9.70;99.90
18998;DHT22;9632;51.018;4.284;2022-11-27T01:28:11;9.70;99.90
18998;DHT22;9632;51.018;4.284;2022-11-27T01:30:37;9.70;99.90
18998;DHT22;9632;51.018;4.284;2022-11-27T01:33:03;9.70;99.90
18998;DHT22;9632;51.018;4.284;2022-11-27T01:35:29;9.70;99.90
18998;DHT22;9632;51.018;4.284;2022-11-27T01:37:54;9.80;99.90
18998;DHT22;9632;51.018;4.284;2022-11-27T01:40:20;9.80;99.90
18998;DHT22;9632;51.018;4.284;2022-11-27T01:42:46;9.80;99.90
18998;DHT22;9632;51.018;4.284;2022-11-27T01:45:14;9.80;99.90
18998;DHT22;9632;51.018;4.284;2022-11-27T01:47:55;9.80;99.90
18998;DHT22;9632;51.018;4.284;2022-11-27T01:50:29;9.80;99.90
18998;DHT22;9632;51.018;4.284;2022-11-27T01:53:02;9.80;99.90
18998;DHT22;9632;51.018;4.284;2022-11-27T01:55:36;9.80;99.90
18998;DHT22;9632;51.018;4.284;2022-11-27T01:58:11;9.80;99.90
18998;DHT22;9632;51.018;4.284;2022-11-27T02:00:38;9.80;99.90
18998;DHT22;9632;51.018;4.284;2022-11-27T02:03:04;9.80;99.90
18998;DHT22;9632;51.018;4.284;2022-11-27T02:05:30;9.70;99.90
18998;DHT22;9632;51.018;4.284;2022-11-27T02:07:59;9.70;99.90
18998;DHT22;9632;51.018;4.284;2022-11-27T02:13:17;9.80;99.90
18998;DHT22;9632;51.018;4.284;2022-11-27T02:18:52;9.90;99.90
18998;DHT22;9632;51.018;4.284;2022-11-27T02:21:32;9.80;99.90
18998;DHT22;9632;51.018;4.284;2022-11-27T02:30:22;9.80;99.90
18998;DHT22;9632;51.018;4.284;2022-11-27T02:32:58;9.80;99.90
18998;DHT22;9632;51.018;4.284;2022-11-27T02:35:44;9.80;99.90
18998;DHT22;9632;51.018;4.284;2022-11-27T02:38:16;9.80;99.90
18998;DHT22;9632;51.018;4.284;2022-11-27T02:43:17;9.70;99.90
18998;DHT22;9632;51.018;4.284;2022-11-27T02:45:50;9.70;99.90
18998;DHT22;9632;51.018;4.284;2022-11-27T02:48:21;9.80;99.90
18998;DHT22;9632;51.018;4.284;2022-11-27T02:50:48;9.80;99.90
18998;DHT22;9632;51.018;4.284;2022-11-27T02:53:34;9.80;99.90
18998;DHT22;9632;51.018;4.284;2022-11-27T02:56:04;9.80;99.90
18998;DHT22;9632;51.018;4.284;2022-11-27T02:58:33;9.90;99.90
18998;DHT22;9632;51.018;4.284;2022-11-27T03:01:02;9.80;99.90
18998;DHT22;9632;51.018;4.284;2022-11-27T03:03:33;9.80;99.90
18998;DHT22;9632;51.018;4.284;2022-11-27T03:06:05;9.80;99.90
18998;DHT22;9632;51.018;4.284;2022-11-27T03:11:21;9.80;99.90
18998;DHT22;9632;51.018;4.284;2022-11-27T03:13:52;9.70;99.90
18998;DHT22;9632;51.018;4.284;2022-11-27T03:16:42;9.80;99.90
18998;DHT22;9632;51.018;4.284;2022-11-27T03:19:25;9.80;99.90
18998;DHT22;9632;51.018;4.284;2022-11-27T03:21:57;9.80;99.90
18998;DHT22;9632;51.018;4.284;2022-11-27T03:24:24;9.80;99.90
18998;DHT22;9632;51.018;4.284;2022-11-27T03:26:50;9.80;99.90
18998;DHT22;9632;51.018;4.284;2022-11-27T03:29:26;9.80;99.90
18998;DHT22;9632;51.018;4.284;2022-11-27T03:31:54;9.70;99.90
18998;DHT22;9632;51.018;4.284;2022-11-27T03:34:20;9.80;99.90
18998;DHT22;9632;51.018;4.284;2022-11-27T03:36:46;9.80;99.90
18998;DHT22;9632;51.018;4.284;2022-11-27T03:39:12;9.80;99.90
18998;DHT22;9632;51.018;4.284;2022-11-27T03:47:50;9.80;99.90
18998;DHT22;9632;51.018;4.284;2022-11-27T03:53:07;9.80;99.90
18998;DHT22;9632;51.018;4.284;2022-11-27T03:55:48;9.80;99.90
18998;DHT22;9632;51.018;4.284;2022-11-27T04:00:53;9.90;99.90
18998;DHT22;9632;51.018;4.284;2022-11-27T04:03:23;9.90;99.90
18998;DHT22;9632;51.018;4.284;2022-11-27T04:05:49;9.80;99.90
18998;DHT22;9632;51.018;4.284;2022-11-27T04:08:15;9.70;99.90
18998;DHT22;9632;51.018;4.284;2022-11-27T04:10:40;9.70;99.90
18998;DHT22;9632;51.018;4.284;2022-11-27T04:13:06;9.70;99.90
18998;DHT22;9632;51.018;4.284;2022-11-27T04:15:31;9.70;99.90
18998;DHT22;9632;51.018;4.284;2022-11-27T04:17:57;9.70;99.90
18998;DHT22;9632;51.018;4.284;2022-11-27T04:20:23;9.70;99.90
18998;DHT22;9632;51.018;4.284;2022-11-27T04:22:48;9.70;99.90
18998;DHT22;9632;51.018;4.284;2022-11-27T04:25:14;9.70;99.90
18998;DHT22;9632;51.018;4.284;2022-11-27T04:27:39;9.70;99.90
18998;DHT22;9632;51.018;4.284;2022-11-27T04:30:06;9.70;99.90
18998;DHT22;9632;51.018;4.284;2022-11-27T04:32:31;9.70;99.90
18998;DHT22;9632;51.018;4.284;2022-11-27T04:34:57;9.80;99.90
18998;DHT22;9632;51.018;4.284;2022-11-27T04:37:23;9.70;99.90
18998;DHT22;9632;51.018;4.284;2022-11-27T04:39:48;9.80;99.90
18998;DHT22;9632;51.018;4.284;2022-11-27T04:42:14;9.80;99.90
18998;DHT22;9632;51.018;4.284;2022-11-27T04:44:39;9.70;99.90
18998;DHT22;9632;51.018;4.284;2022-11-27T04:47:05;9.70;99.90
18998;DHT22;9632;51.018;4.284;2022-11-27T04:49:30;9.70;99.90
18998;DHT22;9632;51.018;4.284;2022-11-27T04:51:56;9.60;99.90
18998;DHT22;9632;51.018;4.284;2022-11-27T04:54:22;9.60;99.90
18998;DHT22;9632;51.018;4.284;2022-11-27T04:56:47;9.60;99.90
18998;DHT22;9632;51.018;4.284;2022-11-27T04:59:13;9.60;99.90
18998;DHT22;9632;51.018;4.284;2022-11-27T05:01:38;9.70;99.90
18998;DHT22;9632;51.018;4.284;2022-11-27T05:04:04;9.70;99.90
18998;DHT22;9632;51.018;4.284;2022-11-27T05:06:30;9.70;99.90
18998;DHT22;9632;51.018;4.284;2022-11-27T05:08:55;9.70;99.90
18998;DHT22;9632;51.018;4.284;2022-11-27T05:11:26;9.60;99.90
18998;DHT22;9632;51.018;4.284;2022-11-27T05:13:52;9.60;99.90
18998;DHT22;9632;51.018;4.284;2022-11-27T05:16:38;9.60;99.90
18998;DHT22;9632;51.018;4.284;2022-11-27T05:19:04;9.50;99.90
18998;DHT22;9632;51.018;4.284;2022-11-27T05:21:29;9.50;99.90
18998;DHT22;9632;51.018;4.284;2022-11-27T05:23:55;9.50;99.90
18998;DHT22;9632;51.018;4.284;2022-11-27T05:26:21;9.40;99.90
18998;DHT22;9632;51.018;4.284;2022-11-27T05:28:46;9.40;99.90
18998;DHT22;9632;51.018;4.284;2022-11-27T05:31:12;9.40;99.90
18998;DHT22;9632;51.018;4.284;2022-11-27T05:33:37;9.40;99.90
18998;DHT22;9632;51.018;4.284;2022-11-27T05:36:03;9.40;99.90
18998;DHT22;9632;51.018;4.284;2022-11-27T05:38:29;9.40;99.90
18998;DHT22;9632;51.018;4.284;2022-11-27T05:40:55;9.40;99.90
18998;DHT22;9632;51.018;4.284;2022-11-27T05:43:20;9.40;99.90
18998;DHT22;9632;51.018;4.284;2022-11-27T05:45:46;9.40;99.90
18998;DHT22;9632;51.018;4.284;2022-11-27T05:48:11;9.40;99.90
18998;DHT22;9632;51.018;4.284;2022-11-27T05:50:38;9.40;99.90
18998;DHT22;9632;51.018;4.284;2022-11-27T05:53:03;9.40;99.90
18998;DHT22;9632;51.018;4.284;2022-11-27T05:55:29;9.40;99.90
18998;DHT22;9632;51.018;4.284;2022-11-27T05:57:54;9.40;99.90
18998;DHT22;9632;51.018;4.284;2022-11-27T06:00:20;9.40;99.90
18998;DHT22;9632;51.018;4.284;2022-11-27T06:02:46;9.40;99.90
18998;DHT22;9632;51.018;4.284;2022-11-27T06:05:11;9.40;99.90
18998;DHT22;9632;51.018;4.284;2022-11-27T06:07:37;9.40;99.90
18998;DHT22;9632;51.018;4.284;2022-11-27T06:10:03;9.40;99.90
18998;DHT22;9632;51.018;4.284;2022-11-27T06:12:31;9.30;99.90
18998;DHT22;9632;51.018;4.284;2022-11-27T06:14:56;9.40;99.90
18998;DHT22;9632;51.018;4.284;2022-11-27T06:17:22;9.40;99.90
18998;DHT22;9632;51.018;4.284;2022-11-27T06:19:48;9.40;99.90
18998;DHT22;9632;51.018;4.284;2022-11-27T06:22:13;9.50;99.90
18998;DHT22;9632;51.018;4.284;2022-11-27T06:24:39;9.50;99.90
18998;DHT22;9632;51.018;4.284;2022-11-27T06:27:04;9.50;99.90
18998;DHT22;9632;51.018;4.284;2022-11-27T06:29:30;9.50;99.90
18998;DHT22;9632;51.018;4.284;2022-11-27T06:31:56;9.50;99.90
18998;DHT22;9632;51.018;4.284;2022-11-27T06:34:21;9.50;99.90
18998;DHT22;9632;51.018;4.284;2022-11-27T06:36:47;9.60;99.90
18998;DHT22;9632;51.018;4.284;2022-11-27T06:39:13;9.60;99.90
18998;DHT22;9632;51.018;4.284;2022-11-27T06:41:39;9.60;99.90
18998;DHT22;9632;51.018;4.284;2022-11-27T06:44:04;9.60;99.90
18998;DHT22;9632;51.018;4.284;2022-11-27T06:46:30;9.60;99.90
18998;DHT22;9632;51.018;4.284;2022-11-27T06:48:56;9.70;99.90
18998;DHT22;9632;51.018;4.284;2022-11-27T06:51:24;9.60;99.90
18998;DHT22;9632;51.018;4.284;2022-11-27T06:53:51;9.70;99.90
18998;DHT22;9632;51.018;4.284;2022-11-27T06:56:20;9.70;99.90
18998;DHT22;9632;51.018;4.284;2022-11-27T06:58:53;9.80;99.90
18998;DHT22;9632;51.018;4.284;2022-11-27T07:01:19;9.70;99.90
18998;DHT22;9632;51.018;4.284;2022-11-27T07:03:45;9.80;99.90
18998;DHT22;9632;51.018;4.284;2022-11-27T07:06:16;9.70;99.90
18998;DHT22;9632;51.018;4.284;2022-11-27T07:08:42;9.70;99.90
18998;DHT22;9632;51.018;4.284;2022-11-27T07:11:13;9.70;99.90
18998;DHT22;9632;51.018;4.284;2022-11-27T07:13:39;9.70;99.90
18998;DHT22;9632;51.018;4.284;2022-11-27T07:16:07;9.70;99.90
18998;DHT22;9632;51.018;4.284;2022-11-27T07:18:36;9.70;99.90
18998;DHT22;9632;51.018;4.284;2022-11-27T07:21:01;9.70;99.90
18998;DHT22;9632;51.018;4.284;2022-11-27T07:23:27;9.70;99.90
18998;DHT22;9632;51.018;4.284;2022-11-27T07:25:53;9.70;99.90
18998;DHT22;9632;51.018;4.284;2022-11-27T07:28:19;9.70;99.90
18998;DHT22;9632;51.018;4.284;2022-11-27T07:30:45;9.60;99.90
18998;DHT22;9632;51.018;4.284;2022-11-27T07:33:10;9.70;99.90
18998;DHT22;9632;51.018;4.284;2022-11-27T07:35:36;9.70;99.90
18998;DHT22;9632;51.018;4.284;2022-11-27T07:38:01;9.70;99.90
18998;DHT22;9632;51.018;4.284;2022-11-27T07:40:27;9.70;99.90
18998;DHT22;9632;51.018;4.284;2022-11-27T07:42:52;9.70;99.90
18998;DHT22;9632;51.018;4.284;2022-11-27T07:45:18;9.70;99.90
18998;DHT22;9632;51.018;4.284;2022-11-27T07:47:44;9.70;99.90
18998;DHT22;9632;51.018;4.284;2022-11-27T07:50:10;9.70;99.90
18998;DHT22;9632;51.018;4.284;2022-11-27T07:52:37;9.70;99.90
18998;DHT22;9632;51.018;4.284;2022-11-27T07:55:03;9.70;99.90
18998;DHT22;9632;51.018;4.284;2022-11-27T07:57:29;9.60;99.90
18998;DHT22;9632;51.018;4.284;2022-11-27T07:59:55;9.70;99.90
18998;DHT22;9632;51.018;4.284;2022-11-27T08:02:21;9.70;99.90
18998;DHT22;9632;51.018;4.284;2022-11-27T08:04:46;9.70;99.90
18998;DHT22;9632;51.018;4.284;2022-11-27T08:07:12;9.70;99.90
18998;DHT22;9632;51.018;4.284;2022-11-27T08:09:37;9.70;99.90
18998;DHT22;9632;51.018;4.284;2022-11-27T08:12:05;9.80;99.90
18998;DHT22;9632;51.018;4.284;2022-11-27T08:14:31;9.70;99.90
18998;DHT22;9632;51.018;4.284;2022-11-27T08:16:56;9.70;99.90
18998;DHT22;9632;51.018;4.284;2022-11-27T08:19:22;9.80;99.90
18998;DHT22;9632;51.018;4.284;2022-11-27T08:21:48;9.70;99.90
18998;DHT22;9632;51.018;4.284;2022-11-27T08:24:13;9.70;99.90
18998;DHT22;9632;51.018;4.284;2022-11-27T08:26:39;9.80;99.90
18998;DHT22;9632;51.018;4.284;2022-11-27T08:29:04;9.80;99.90
18998;DHT22;9632;51.018;4.284;2022-11-27T08:31:31;9.70;99.90
18998;DHT22;9632;51.018;4.284;2022-11-27T08:33:57;9.70;99.90
18998;DHT22;9632;51.018;4.284;2022-11-27T08:36:26;9.70;99.90
18998;DHT22;9632;51.018;4.284;2022-11-27T08:38:53;9.80;99.90
18998;DHT22;9632;51.018;4.284;2022-11-27T08:41:18;9.70;99.90
18998;DHT22;9632;51.018;4.284;2022-11-27T08:43:44;9.70;99.90
18998;DHT22;9632;51.018;4.284;2022-11-27T08:46:10;9.70;99.90
18998;DHT22;9632;51.018;4.284;2022-11-27T08:48:36;9.70;99.90
18998;DHT22;9632;51.018;4.284;2022-11-27T08:51:06;9.80;99.90
18998;DHT22;9632;51.018;4.284;2022-11-27T08:53:32;9.70;99.90
18998;DHT22;9632;51.018;4.284;2022-11-27T08:56:04;9.70;99.90
18998;DHT22;9632;51.018;4.284;2022-11-27T08:58:30;9.70;99.90
18998;DHT22;9632;51.018;4.284;2022-11-27T09:00:56;9.70;99.90
18998;DHT22;9632;51.018;4.284;2022-11-27T09:03:21;9.70;99.90
18998;DHT22;9632;51.018;4.284;2022-11-27T09:05:47;9.70;99.90
18998;DHT22;9632;51.018;4.284;2022-11-27T09:08:12;9.80;99.90
18998;DHT22;9632;51.018;4.284;2022-11-27T09:10:44;9.70;99.90
18998;DHT22;9632;51.018;4.284;2022-11-27T09:13:10;9.70;99.90
18998;DHT22;9632;51.018;4.284;2022-11-27T09:15:36;9.70;99.90
18998;DHT22;9632;51.018;4.284;2022-11-27T09:18:01;9.60;99.90
18998;DHT22;9632;51.018;4.284;2022-11-27T09:20:27;9.60;99.90
18998;DHT22;9632;51.018;4.284;2022-11-27T09:22:53;9.70;99.90
18998;DHT22;9632;51.018;4.284;2022-11-27T09:25:18;9.70;99.90
18998;DHT22;9632;51.018;4.284;2022-11-27T09:27:44;9.70;99.90
18998;DHT22;9632;51.018;4.284;2022-11-27T09:30:10;9.70;99.90
18998;DHT22;9632;51.018;4.284;2022-11-27T09:32:36;9.70;99.90
18998;DHT22;9632;51.018;4.284;2022-11-27T09:35:01;9.70;99.90
18998;DHT22;9632;51.018;4.284;2022-11-27T09:37:27;9.80;99.90
18998;DHT22;9632;51.018;4.284;2022-11-27T09:39:53;9.70;99.90
18998;DHT22;9632;51.018;4.284;2022-11-27T09:42:42;9.80;99.90
18998;DHT22;9632;51.018;4.284;2022-11-27T09:45:13;9.70;99.90
18998;DHT22;9632;51.018;4.284;2022-11-27T09:47:48;9.60;99.90
18998;DHT22;9632;51.018;4.284;2022-11-27T09:50:38;9.70;99.90
18998;DHT22;9632;51.018;4.284;2022-11-27T09:55:46;9.80;99.90
18998;DHT22;9632;51.018;4.284;2022-11-27T10:00:48;9.80;99.90
18998;DHT22;9632;51.018;4.284;2022-11-27T10:03:25;9.80;99.90
18998;DHT22;9632;51.018;4.284;2022-11-27T10:18:58;9.90;99.90
18998;DHT22;9632;51.018;4.284;2022-11-27T10:21:44;9.90;99.90
18998;DHT22;9632;51.018;4.284;2022-11-27T10:24:27;9.90;99.90
18998;DHT22;9632;51.018;4.284;2022-11-27T10:26:57;9.90;99.90
18998;DHT22;9632;51.018;4.284;2022-11-27T10:29:39;9.90;99.90
18998;DHT22;9632;51.018;4.284;2022-11-27T10:32:12;9.90;99.90
18998;DHT22;9632;51.018;4.284;2022-11-27T10:34:42;10.00;99.90
18998;DHT22;9632;51.018;4.284;2022-11-27T10:40:26;10.00;99.90
18998;DHT22;9632;51.018;4.284;2022-11-27T10:43:20;10.00;99.90
18998;DHT22;9632;51.018;4.284;2022-11-27T10:46:00;10.20;99.90
18998;DHT22;9632;51.018;4.284;2022-11-27T10:48:27;10.10;99.90
18998;DHT22;9632;51.018;4.284;2022-11-27T10:50:54;10.10;99.90
18998;DHT22;9632;51.018;4.284;2022-11-27T10:53:29;10.10;99.90
18998;DHT22;9632;51.018;4.284;2022-11-27T11:01:14;10.10;99.90
18998;DHT22;9632;51.018;4.284;2022-11-27T11:03:40;10.10;99.90
18998;DHT22;9632;51.018;4.284;2022-11-27T11:06:12;10.20;99.90
18998;DHT22;9632;51.018;4.284;2022-11-27T11:08:39;10.20;99.90
18998;DHT22;9632;51.018;4.284;2022-11-27T11:11:06;10.20;99.90
18998;DHT22;9632;51.018;4.284;2022-11-27T11:13:45;10.20;99.90
18998;DHT22;9632;51.018;4.284;2022-11-27T11:18:50;10.20;99.90
18998;DHT22;9632;51.018;4.284;2022-11-27T11:24:02;10.20;99.90
18998;DHT22;9632;51.018;4.284;2022-11-27T11:28:59;10.20;99.90
18998;DHT22;9632;51.018;4.284;2022-11-27T11:31:40;10.30;99.90
18998;DHT22;9632;51.018;4.284;2022-11-27T11:36:53;10.20;99.90
18998;DHT22;9632;51.018;4.284;2022-11-27T11:39:24;10.30;99.90
18998;DHT22;9632;51.018;4.284;2022-11-27T11:41:51;10.40;99.90
18998;DHT22;9632;51.018;4.284;2022-11-27T11:44:23;10.40;99.90
18998;DHT22;9632;51.018;4.284;2022-11-27T11:46:52;10.50;99.90
18998;DHT22;9632;51.018;4.284;2022-11-27T11:49:23;10.50;99.90
18998;DHT22;9632;51.018;4.284;2022-11-27T11:52:17;10.40;99.90
18998;DHT22;9632;51.018;4.284;2022-11-27T12:00:17;10.40;99.90
18998;DHT22;9632;51.018;4.284;2022-11-27T12:02:47;10.40;99.90
18998;DHT22;9632;51.018;4.284;2022-11-27T12:05:36;10.40;99.90
18998;DHT22;9632;51.018;4.284;2022-11-27T12:11:21;10.50;99.90
18998;DHT22;9632;51.018;4.284;2022-11-27T12:14:23;10.50;99.90
18998;DHT22;9632;51.018;4.284;2022-11-27T12:30:20;10.50;99.90
18998;DHT22;9632;51.018;4.284;2022-11-27T12:43:50;10.70;99.90
18998;DHT22;9632;51.018;4.284;2022-11-27T12:46:48;10.70;99.90
18998;DHT22;9632;51.018;4.284;2022-11-27T12:49:20;10.70;99.90
18998;DHT22;9632;51.018;4.284;2022-11-27T12:52:05;10.70;99.90
18998;DHT22;9632;51.018;4.284;2022-11-27T13:00:17;10.60;99.90
18998;DHT22;9632;51.018;4.284;2022-11-27T13:03:17;10.70;99.90
18998;DHT22;9632;51.018;4.284;2022-11-27T13:05:55;10.70;99.90
18998;DHT22;9632;51.018;4.284;2022-11-27T13:11:25;10.70;99.90
18998;DHT22;9632;51.018;4.284;2022-11-27T13:13:56;10.70;99.90
18998;DHT22;9632;51.018;4.284;2022-11-27T13:16:29;10.70;99.90
18998;DHT22;9632;51.018;4.284;2022-11-27T13:21:44;10.70;99.90
18998;DHT22;9632;51.018;4.284;2022-11-27T13:24:11;10.70;99.90
18998;DHT22;9632;51.018;4.284;2022-11-27T13:29:30;10.60;99.90
18998;DHT22;9632;51.018;4.284;2022-11-27T13:31:59;10.70;99.90
18998;DHT22;9632;51.018;4.284;2022-11-27T13:34:27;10.70;99.90
18998;DHT22;9632;51.018;4.284;2022-11-27T13:37:03;10.70;99.90
18998;DHT22;9632;51.018;4.284;2022-11-27T13:39:32;10.70;99.90
18998;DHT22;9632;51.018;4.284;2022-11-27T13:42:06;10.70;99.90
18998;DHT22;9632;51.018;4.284;2022-11-27T13:44:36;10.70;99.90
18998;DHT22;9632;51.018;4.284;2022-11-27T13:47:22;10.70;99.90
18998;DHT22;9632;51.018;4.284;2022-11-27T13:50:00;10.60;99.90
18998;DHT22;9632;51.018;4.284;2022-11-27T13:52:27;10.50;99.90
18998;DHT22;9632;51.018;4.284;2022-11-27T13:54:58;10.50;99.90
18998;DHT22;9632;51.018;4.284;2022-11-27T13:57:26;10.40;99.90
18998;DHT22;9632;51.018;4.284;2022-11-27T14:00:10;10.50;99.90
18998;DHT22;9632;51.018;4.284;2022-11-27T14:02:40;10.50;99.90
18998;DHT22;9632;51.018;4.284;2022-11-27T14:05:06;10.50;99.90
18998;DHT22;9632;51.018;4.284;2022-11-27T14:07:43;10.60;99.90
18998;DHT22;9632;51.018;4.284;2022-11-27T14:10:23;10.50;99.90
18998;DHT22;9632;51.018;4.284;2022-11-27T14:12:56;10.50;99.90
18998;DHT22;9632;51.018;4.284;2022-11-27T14:15:24;10.60;99.90
18998;DHT22;9632;51.018;4.284;2022-11-27T14:18:02;10.60;99.90
18998;DHT22;9632;51.018;4.284;2022-11-27T14:20:31;10.60;99.90
18998;DHT22;9632;51.018;4.284;2022-11-27T14:22:58;10.70;99.90
18998;DHT22;9632;51.018;4.284;2022-11-27T14:25:30;10.60;99.90
18998;DHT22;9632;51.018;4.284;2022-11-27T14:28:20;10.60;99.90
18998;DHT22;9632;51.018;4.284;2022-11-27T14:30:54;10.70;99.90
18998;DHT22;9632;51.018;4.284;2022-11-27T14:33:32;10.70;99.90
18998;DHT22;9632;51.018;4.284;2022-11-27T14:36:23;10.60;99.90
18998;DHT22;9632;51.018;4.284;2022-11-27T14:38:49;10.70;99.90
18998;DHT22;9632;51.018;4.284;2022-11-27T14:41:18;10.70;99.90
18998;DHT22;9632;51.018;4.284;2022-11-27T14:43:44;10.70;99.90
18998;DHT22;9632;51.018;4.284;2022-11-27T14:46:18;10.70;99.90
18998;DHT22;9632;51.018;4.284;2022-11-27T14:48:49;10.70;99.90
18998;DHT22;9632;51.018;4.284;2022-11-27T14:51:20;10.70;99.90
18998;DHT22;9632;51.018;4.284;2022-11-27T14:53:57;10.70;99.90
18998;DHT22;9632;51.018;4.284;2022-11-27T14:56:33;10.70;99.90
18998;DHT22;9632;51.018;4.284;2022-11-27T14:59:00;10.60;99.90
18998;DHT22;9632;51.018;4.284;2022-11-27T15:01:34;10.70;99.90
18998;DHT22;9632;51.018;4.284;2022-11-27T15:06:48;10.80;99.90
18998;DHT22;9632;51.018;4.284;2022-11-27T15:09:26;10.80;99.90
18998;DHT22;9632;51.018;4.284;2022-11-27T15:11:55;10.80;99.90
18998;DHT22;9632;51.018;4.284;2022-11-27T15:14:23;10.70;99.90
18998;DHT22;9632;51.018;4.284;2022-11-27T15:16:51;10.70;99.90
18998;DHT22;9632;51.018;4.284;2022-11-27T15:19:29;10.70;99.90
18998;DHT22;9632;51.018;4.284;2022-11-27T15:21:55;10.70;99.90
18998;DHT22;9632;51.018;4.284;2022-11-27T15:24:33;10.70;99.90
18998;DHT22;9632;51.018;4.284;2022-11-27T15:27:17;10.70;99.90
18998;DHT22;9632;51.018;4.284;2022-11-27T15:32:49;10.70;99.90
18998;DHT22;9632;51.018;4.284;2022-11-27T15:35:27;10.70;99.90
18998;DHT22;9632;51.018;4.284;2022-11-27T15:37:56;10.70;99.90
18998;DHT22;9632;51.018;4.284;2022-11-27T15:40:39;10.70;99.90
18998;DHT22;9632;51.018;4.284;2022-11-27T15:43:15;10.60;99.90
18998;DHT22;9632;51.018;4.284;2022-11-27T15:45:42;10.70;99.90
18998;DHT22;9632;51.018;4.284;2022-11-27T15:48:14;10.60;99.90
18998;DHT22;9632;51.018;4.284;2022-11-27T15:50:40;10.60;99.90
18998;DHT22;9632;51.018;4.284;2022-11-27T15:53:06;10.60;99.90
18998;DHT22;9632;51.018;4.284;2022-11-27T15:55:32;10.70;99.90
18998;DHT22;9632;51.018;4.284;2022-11-27T15:57:58;10.60;99.90
18998;DHT22;9632;51.018;4.284;2022-11-27T16:00:24;10.60;99.90
18998;DHT22;9632;51.018;4.284;2022-11-27T16:02:50;10.60;99.90
18998;DHT22;9632;51.018;4.284;2022-11-27T16:05:16;10.60;99.90
18998;DHT22;9632;51.018;4.284;2022-11-27T16:07:42;10.60;99.90
18998;DHT22;9632;51.018;4.284;2022-11-27T16:10:08;10.60;99.90
18998;DHT22;9632;51.018;4.284;2022-11-27T16:12:34;10.60;99.90
18998;DHT22;9632;51.018;4.284;2022-11-27T16:15:00;10.60;99.90
18998;DHT22;9632;51.018;4.284;2022-11-27T16:17:26;10.60;99.90
18998;DHT22;9632;51.018;4.284;2022-11-27T16:19:51;10.50;99.90
18998;DHT22;9632;51.018;4.284;2022-11-27T16:22:17;10.50;99.90
18998;DHT22;9632;51.018;4.284;2022-11-27T16:24:43;10.50;99.90
18998;DHT22;9632;51.018;4.284;2022-11-27T16:27:09;10.50;99.90
18998;DHT22;9632;51.018;4.284;2022-11-27T16:29:34;10.50;99.90
18998;DHT22;9632;51.018;4.284;2022-11-27T16:32:00;10.50;99.90
18998;DHT22;9632;51.018;4.284;2022-11-27T16:34:26;10.50;99.90
18998;DHT22;9632;51.018;4.284;2022-11-27T16:36:52;10.50;99.90
18998;DHT22;9632;51.018;4.284;2022-11-27T16:39:17;10.40;99.90
18998;DHT22;9632;51.018;4.284;2022-11-27T16:41:43;10.40;99.90
18998;DHT22;9632;51.018;4.284;2022-11-27T16:44:13;10.50;99.90
18998;DHT22;9632;51.018;4.284;2022-11-27T16:46:39;10.50;99.90
18998;DHT22;9632;51.018;4.284;2022-11-27T16:49:05;10.50;99.90
18998;DHT22;9632;51.018;4.284;2022-11-27T16:51:33;10.50;99.90
18998;DHT22;9632;51.018;4.284;2022-11-27T16:54:01;10.50;99.90
18998;DHT22;9632;51.018;4.284;2022-11-27T16:56:28;10.50;99.90
18998;DHT22;9632;51.018;4.284;2022-11-27T16:58:55;10.50;99.90
18998;DHT22;9632;51.018;4.284;2022-11-27T17:01:26;10.50;99.90
18998;DHT22;9632;51.018;4.284;2022-11-27T17:03:52;10.40;99.90
18998;DHT22;9632;51.018;4.284;2022-11-27T17:06:25;10.40;99.90
18998;DHT22;9632;51.018;4.284;2022-11-27T17:08:56;10.40;99.90
18998;DHT22;9632;51.018;4.284;2022-11-27T17:11:29;10.40;99.90
18998;DHT22;9632;51.018;4.284;2022-11-27T17:13:59;10.40;99.90
18998;DHT22;9632;51.018;4.284;2022-11-27T17:16:26;10.40;99.90
18998;DHT22;9632;51.018;4.284;2022-11-27T17:18:52;10.40;99.90
18998;DHT22;9632;51.018;4.284;2022-11-27T17:21:30;10.40;99.90
18998;DHT22;9632;51.018;4.284;2022-11-27T17:24:00;10.40;99.90
18998;DHT22;9632;51.018;4.284;2022-11-27T17:26:28;10.40;99.90
18998;DHT22;9632;51.018;4.284;2022-11-27T17:28:55;10.50;99.90
18998;DHT22;9632;51.018;4.284;2022-11-27T17:31:23;10.50;99.90
18998;DHT22;9632;51.018;4.284;2022-11-27T17:33:49;10.50;99.90
18998;DHT22;9632;51.018;4.284;2022-11-27T17:36:17;10.40;99.90
18998;DHT22;9632;51.018;4.284;2022-11-27T17:38:42;10.40;99.90
18998;DHT22;9632;51.018;4.284;2022-11-27T17:41:11;10.40;99.90
18998;DHT22;9632;51.018;4.284;2022-11-27T17:43:38;10.40;99.90
18998;DHT22;9632;51.018;4.284;2022-11-27T17:46:08;10.50;99.90
18998;DHT22;9632;51.018;4.284;2022-11-27T17:48:34;10.50;99.90
18998;DHT22;9632;51.018;4.284;2022-11-27T17:51:00;10.40;99.90
18998;DHT22;9632;51.018;4.284;2022-11-27T17:53:26;10.50;99.90
18998;DHT22;9632;51.018;4.284;2022-11-27T17:55:52;10.50;99.90
18998;DHT22;9632;51.018;4.284;2022-11-27T17:58:20;10.50;99.90
18998;DHT22;9632;51.018;4.284;2022-11-27T18:00:45;10.50;99.90
18998;DHT22;9632;51.018;4.284;2022-11-27T18:03:11;10.50;99.90
18998;DHT22;9632;51.018;4.284;2022-11-27T18:05:37;10.50;99.90
18998;DHT22;9632;51.018;4.284;2022-11-27T18:08:04;10.50;99.90